Time;durP1;ratioP1;P1;durP2;ratioP2;P2;SDS_P1;SDS_P2;PMS_P1;PMS_P2;Temp;Humidity;BMP_temperature;BMP_pressure;BME280_temperature;BME280_humidity;BME280_pressure;Samples;Min_cycle;Max_cycle;Signal;HPM_P1;HPM_P2
2023/11/22 00:00:42;;;;;;;10.45;5.40;;;;;;;7.51;49.96;102184.06;5087227;27;98866;-76
2023/11/22 00:03:09;;;;;;;11.05;5.50;;;;;;;7.47;50.17;102191.09;5088329;27;100346;-74
2023/11/22 00:05:35;;;;;;;11.05;6.07;;;;;;;7.50;50.17;102187.56;5088484;27;96737;-76
2023/11/22 00:08:02;;;;;;;9.77;5.10;;;;;;;7.56;49.44;102204.22;5081840;27;98277;-76
2023/11/22 00:10:28;;;;;;;10.55;5.43;;;;;;;7.45;49.71;102207.75;5082248;27;99500;-75
2023/11/22 00:12:56;;;;;;;14.82;4.95;;;;;;;7.42;49.96;102205.97;5089978;27;99064;-76
2023/11/22 00:15:23;;;;;;;8.93;5.07;;;;;;;7.45;50.22;102216.50;5086052;27;98395;-76
2023/11/22 00:17:49;;;;;;;9.60;5.25;;;;;;;7.47;50.26;102224.41;5082913;27;97100;-76
2023/11/22 00:20:17;;;;;;;8.95;4.75;;;;;;;7.63;49.43;102225.28;5076833;27;99891;-76
2023/11/22 00:22:44;;;;;;;11.10;5.53;;;;;;;7.48;49.93;102232.28;5081018;27;98805;-72
2023/11/22 00:25:13;;;;;;;12.05;5.07;;;;;;;7.42;49.74;102236.66;5080848;27;96860;-72
2023/11/22 00:27:39;;;;;;;10.95;5.40;;;;;;;7.40;49.82;102243.69;5083833;27;96868;-72
2023/11/22 00:30:09;;;;;;;9.52;5.25;;;;;;;7.34;49.75;102247.19;5086649;27;98146;-73
2023/11/22 00:32:36;;;;;;;8.70;4.85;;;;;;;7.47;50.23;102258.59;5082747;27;99250;-73
2023/11/22 00:35:02;;;;;;;14.68;5.68;;;;;;;7.28;50.29;102260.31;5087453;27;97120;-74
2023/11/22 00:37:29;;;;;;;8.73;4.95;;;;;;;7.44;49.59;102256.84;5082982;27;96952;-75
2023/11/22 00:39:55;;;;;;;9.98;5.00;;;;;;;7.56;49.44;102255.97;5081652;27;99422;-75
2023/11/22 00:42:22;;;;;;;12.82;5.25;;;;;;;7.35;50.04;102251.53;5089908;27;98746;-75
2023/11/22 00:44:49;;;;;;;10.15;5.43;;;;;;;7.22;50.20;102255.03;5087062;27;96892;-75
2023/11/22 00:47:17;;;;;;;9.50;4.88;;;;;;;7.33;50.04;102263.84;5089576;27;96851;-75
2023/11/22 00:49:43;;;;;;;11.10;4.70;;;;;;;7.46;49.47;102260.34;5085722;27;99602;-74
2023/11/22 00:52:10;;;;;;;10.52;5.38;;;;;;;7.39;49.82;102268.22;5089535;27;98953;-74
2023/11/22 00:54:36;;;;;;;7.13;4.40;;;;;;;7.30;50.36;102263.81;5085823;27;97169;-75
2023/11/22 00:57:03;;;;;;;12.35;5.38;;;;;;;7.43;49.63;102273.47;5085780;27;96879;-75
2023/11/22 00:59:29;;;;;;;11.50;5.15;;;;;;;7.45;49.71;102273.50;5080915;27;99196;-76
2023/11/22 01:01:55;;;;;;;13.10;5.07;;;;;;;7.36;49.75;102284.88;5088971;27;98820;-75
2023/11/22 01:04:23;;;;;;;10.13;5.35;;;;;;;7.39;49.90;102287.50;5080669;27;97183;-73
2023/11/22 01:06:49;;;;;;;8.45;5.13;;;;;;;7.30;50.18;102287.47;5092934;27;97098;-74
2023/11/22 01:09:16;;;;;;;10.50;5.15;;;;;;;7.24;50.32;102279.59;5083658;27;98833;-72
2023/11/22 01:11:44;;;;;;;12.60;5.95;;;;;;;7.13;50.50;102276.06;5085072;27;99141;-70
2023/11/22 01:14:11;;;;;;;11.85;4.97;;;;;;;6.93;51.09;102273.38;5089708;27;97056;-71
2023/11/22 01:16:37;;;;;;;13.02;5.97;;;;;;;7.02;50.99;102281.25;5078717;27;96945;-72
2023/11/22 01:19:04;;;;;;;12.52;5.47;;;;;;;7.02;51.23;102283.03;5077686;27;101085;-72
2023/11/22 01:21:32;;;;;;;13.68;5.75;;;;;;;6.93;51.27;102280.38;5086705;27;98124;-72
2023/11/22 01:23:59;;;;;;;10.68;5.28;;;;;;;6.78;51.20;102278.53;5085104;27;97110;-71
2023/11/22 01:26:26;;;;;;;11.70;5.25;;;;;;;6.68;51.45;102282.91;5087306;27;96944;-72
2023/11/22 01:28:52;;;;;;;11.13;5.82;;;;;;;6.31;52.46;102283.53;5089646;27;98246;-71
2023/11/22 01:31:20;;;;;;;11.75;5.50;;;;;;;6.45;53.02;102278.38;5088589;27;98774;-70
2023/11/22 01:33:47;;;;;;;13.15;5.57;;;;;;;6.44;52.91;102285.38;5090632;27;96910;-70
2023/11/22 01:36:15;;;;;;;11.68;5.55;;;;;;;6.32;53.30;102277.41;5085389;27;98586;-70
2023/11/22 01:38:44;;;;;;;13.68;6.10;;;;;;;6.48;52.84;102276.66;5082400;27;102203;-70
2023/11/22 01:41:12;;;;;;;10.38;5.60;;;;;;;6.40;53.26;102278.34;5080590;27;100421;-71
2023/11/22 01:43:39;;;;;;;10.57;5.68;;;;;;;6.38;53.08;102275.72;5084891;27;96732;-71
2023/11/22 01:46:06;;;;;;;14.77;6.00;;;;;;;6.44;53.17;102281.88;5081599;27;96948;-74
2023/11/22 01:48:33;;;;;;;14.15;6.05;;;;;;;6.40;53.35;102283.59;5091419;27;100343;-73
2023/11/22 01:50:59;;;;;;;11.30;6.20;;;;;;;6.23;53.80;102278.25;5092079;27;99209;-72
2023/11/22 01:53:26;;;;;;;12.00;5.70;;;;;;;6.17;53.30;102291.31;5083187;27;97297;-74
2023/11/22 01:55:54;;;;;;;10.43;5.68;;;;;;;6.28;53.66;102289.66;5082675;27;96822;-73
2023/11/22 01:58:23;;;;;;;11.38;5.43;;;;;;;6.38;53.18;102298.47;5081206;27;98960;-72
2023/11/22 02:00:51;;;;;;;11.57;5.90;;;;;;;6.41;52.64;102293.25;5086827;27;99148;-71
2023/11/22 02:03:18;;;;;;;10.13;5.05;;;;;;;6.33;53.24;102295.81;5084735;27;96824;-72
2023/11/22 02:05:45;;;;;;;13.43;5.43;;;;;;;6.31;52.83;102312.41;5082971;27;97913;-72
2023/11/22 02:08:12;;;;;;;12.55;6.18;;;;;;;6.34;52.27;102315.06;5087401;27;99527;-72
2023/11/22 02:10:39;;;;;;;11.63;5.53;;;;;;;6.34;52.44;102315.97;5085182;27;101385;-73
2023/11/22 02:13:07;;;;;;;12.23;6.22;;;;;;;6.22;52.15;102317.63;5084592;27;97257;-72
2023/11/22 02:15:34;;;;;;;12.75;5.88;;;;;;;6.22;52.52;102322.88;5082300;27;96900;-73
2023/11/22 02:18:01;;;;;;;11.05;6.38;;;;;;;6.14;52.74;102316.69;5093463;27;100511;-73
2023/11/22 02:20:28;;;;;;;13.50;5.82;;;;;;;6.26;52.75;102319.38;5085707;27;97877;-73
2023/11/22 02:22:55;;;;;;;10.43;6.00;;;;;;;6.29;52.19;102316.81;5095810;27;97723;-74
2023/11/22 02:25:23;;;;;;;11.77;6.10;;;;;;;6.16;52.16;102309.72;5087938;27;99010;-74
2023/11/22 02:27:50;;;;;;;12.45;5.80;;;;;;;6.28;51.85;102313.28;5082886;27;98896;-75
2023/11/22 02:30:16;;;;;;;12.75;5.80;;;;;;;6.33;50.91;102319.44;5080678;27;100518;-75
2023/11/22 02:32:44;;;;;;;13.65;6.07;;;;;;;6.29;50.76;102325.56;5088601;27;96871;-75
2023/11/22 02:35:11;;;;;;;10.25;5.40;;;;;;;6.20;51.26;102335.09;5091126;27;96831;-76
2023/11/22 02:37:37;;;;;;;10.75;5.43;;;;;;;6.25;50.04;102334.25;5087378;27;99221;-75
2023/11/22 02:40:07;;;;;;;12.30;6.07;;;;;;;6.13;50.75;102338.53;5087576;27;102821;-75
2023/11/22 02:42:35;;;;;;;14.02;5.90;;;;;;;6.12;50.53;102347.28;5092644;27;97154;-74
2023/11/22 02:45:02;;;;;;;10.88;5.72;;;;;;;6.08;50.79;102349.00;5090598;27;98726;-75
2023/11/22 02:47:30;;;;;;;9.80;5.65;;;;;;;6.14;49.56;102354.31;5089082;27;102414;-75
2023/11/22 02:49:56;;;;;;;10.18;5.53;;;;;;;6.11;49.28;102356.88;5087253;27;99328;-75
2023/11/22 02:52:26;;;;;;;10.18;5.63;;;;;;;6.06;48.88;102357.72;5091396;27;100498;-76
2023/11/22 02:54:52;;;;;;;15.48;5.50;;;;;;;5.85;48.95;102361.88;5087007;27;99055;-75
2023/11/22 02:57:18;;;;;;;8.77;4.72;;;;;;;6.02;47.03;102363.81;5090503;27;98871;-75
2023/11/22 02:59:46;;;;;;;7.82;4.95;;;;;;;5.90;47.20;102373.34;5090693;27;99487;-76
2023/11/22 03:02:14;;;;;;;8.02;4.78;;;;;;;5.65;46.77;102381.78;5094363;27;96726;-74
2023/11/22 03:04:40;;;;;;;10.93;5.25;;;;;;;5.99;46.87;102398.78;5091456;27;96903;-74
2023/11/22 03:07:07;;;;;;;10.10;5.00;;;;;;;6.01;46.87;102404.94;5086439;27;99209;-75
2023/11/22 03:09:33;;;;;;;8.27;4.57;;;;;;;5.92;47.61;102413.56;5086325;27;102128;-74
2023/11/22 03:12:02;;;;;;;9.70;5.47;;;;;;;6.03;47.19;102418.06;5084630;27;97233;-74
2023/11/22 03:14:29;;;;;;;13.05;5.88;;;;;;;6.09;47.37;102411.13;5088827;27;97754;-75
2023/11/22 03:16:57;;;;;;;9.68;5.35;;;;;;;5.96;48.29;102414.50;5093119;27;100575;-74
2023/11/22 03:19:24;;;;;;;12.77;5.53;;;;;;;6.01;49.61;102418.06;5087616;27;100482;-74
2023/11/22 03:21:50;;;;;;;12.38;5.13;;;;;;;5.97;49.97;102421.53;5093338;27;99091;-74
2023/11/22 03:24:17;;;;;;;11.13;5.55;;;;;;;6.05;50.02;102416.31;5085832;27;97400;-74
2023/11/22 03:26:45;;;;;;;12.07;6.45;;;;;;;5.91;51.73;102422.31;5082431;27;99390;-72
2023/11/22 03:29:12;;;;;;;13.73;5.93;;;;;;;5.88;52.46;102427.53;5083561;27;99070;-73
2023/11/22 03:31:38;;;;;;;13.55;6.18;;;;;;;5.75;53.41;102430.88;5078773;27;98858;-73
2023/11/22 03:34:06;;;;;;;10.45;5.95;;;;;;;5.86;53.47;102439.72;5086222;27;96848;-72
2023/11/22 03:36:32;;;;;;;12.05;6.10;;;;;;;5.87;53.37;102436.28;5086454;27;98857;-72
2023/11/22 03:38:59;;;;;;;12.15;5.53;;;;;;;5.70;53.38;102432.56;5087690;27;98978;-72
2023/11/22 03:41:25;;;;;;;13.98;6.78;;;;;;;5.78;53.89;102435.25;5092263;27;96791;-72
2023/11/22 03:43:51;;;;;;;12.50;6.00;;;;;;;5.81;53.62;102427.41;5090833;27;96991;-73
2023/11/22 03:46:18;;;;;;;16.60;5.78;;;;;;;5.52;54.20;102408.72;5092418;27;98431;-73
2023/11/22 03:48:44;;;;;;;13.77;5.85;;;;;;;5.84;53.87;102412.56;5084011;27;98808;-74
2023/11/22 03:51:12;;;;;;;10.93;6.03;;;;;;;5.77;53.54;102418.66;5082306;27;97089;-74
2023/11/22 03:53:38;;;;;;;10.90;6.30;;;;;;;5.79;53.82;102414.28;5094039;27;96894;-73
2023/11/22 03:56:05;;;;;;;11.02;5.70;;;;;;;5.49;54.49;102409.59;5093296;27;99050;-73
2023/11/22 03:58:32;;;;;;;11.02;6.28;;;;;;;5.58;53.95;102409.69;5091658;27;99199;-74
2023/11/22 04:01:02;;;;;;;14.40;6.15;;;;;;;5.59;54.21;102415.81;5080974;27;96976;-74
2023/11/22 04:03:28;;;;;;;9.85;5.40;;;;;;;5.64;53.38;102422.00;5087572;27;97793;-74
2023/11/22 04:05:55;;;;;;;12.88;6.25;;;;;;;5.63;53.04;102437.72;5084926;27;98830;-74
2023/11/22 04:08:23;;;;;;;12.57;5.70;;;;;;;5.65;53.12;102449.97;5089465;27;99115;-74
2023/11/22 04:10:49;;;;;;;11.50;6.10;;;;;;;5.72;53.53;102464.91;5087714;27;97395;-73
2023/11/22 04:13:15;;;;;;;10.88;6.03;;;;;;;5.69;53.37;102466.63;5087000;27;98654;-73
2023/11/22 04:15:42;;;;;;;11.23;6.13;;;;;;;5.60;53.32;102456.91;5085310;27;98921;-75
2023/11/22 04:18:08;;;;;;;12.15;6.55;;;;;;;5.76;53.76;102465.84;5089499;27;98832;-76
2023/11/22 04:20:35;;;;;;;10.48;5.82;;;;;;;5.74;53.13;102464.94;5085697;27;100540;-75
2023/11/22 04:23:01;;;;;;;11.25;6.28;;;;;;;5.51;53.71;102457.66;5087179;27;97382;-75
2023/11/22 04:25:29;;;;;;;12.90;6.50;;;;;;;5.52;53.28;102455.94;5088102;27;99197;-74
2023/11/22 04:27:55;;;;;;;10.18;6.22;;;;;;;5.48;53.38;102448.91;5089649;27;101502;-75
2023/11/22 04:30:22;;;;;;;11.77;6.03;;;;;;;5.44;53.54;102444.50;5086555;27;97238;-75
2023/11/22 04:32:49;;;;;;;12.00;6.20;;;;;;;5.34;53.56;102453.06;5090285;27;97862;-75
2023/11/22 04:35:15;;;;;;;13.68;6.78;;;;;;;5.43;52.87;102475.06;5087854;27;99863;-75
2023/11/22 04:37:42;;;;;;;11.27;6.22;;;;;;;5.47;53.03;102481.22;5085982;27;99154;-75
2023/11/22 04:40:11;;;;;;;16.00;6.68;;;;;;;5.37;53.40;102479.34;5090498;27;96804;-75
2023/11/22 04:42:39;;;;;;;12.50;6.43;;;;;;;5.48;52.84;102475.13;5088711;27;97266;-76
2023/11/22 04:45:06;;;;;;;11.85;6.05;;;;;;;5.43;53.26;102479.44;5083752;27;101252;-73
2023/11/22 04:47:33;;;;;;;13.32;5.88;;;;;;;5.42;52.33;102482.91;5086327;27;99394;-76
2023/11/22 04:49:59;;;;;;;15.02;6.55;;;;;;;5.50;52.78;102491.75;5085774;27;97728;-76
2023/11/22 04:52:26;;;;;;;10.68;5.72;;;;;;;5.48;52.28;102504.84;5089289;27;96863;-75
2023/11/22 04:54:52;;;;;;;10.60;5.95;;;;;;;5.36;52.75;102503.78;5088643;27;98950;-75
2023/11/22 04:57:19;;;;;;;12.48;6.10;;;;;;;5.25;52.86;102506.25;5089928;27;99978;-73
2023/11/22 04:59:47;;;;;;;11.57;5.90;;;;;;;5.45;52.69;102514.38;5082124;27;99193;-75
2023/11/22 05:02:14;;;;;;;15.35;6.22;;;;;;;5.48;52.46;102523.19;5085322;27;97847;-75
2023/11/22 05:04:42;;;;;;;10.05;6.28;;;;;;;5.36;52.14;102533.50;5085523;27;98966;-76
2023/11/22 05:07:08;;;;;;;10.02;5.82;;;;;;;5.46;51.71;102524.03;5087550;27;98780;-75
2023/11/22 05:09:35;;;;;;;13.55;6.85;;;;;;;5.44;51.86;102531.00;5085971;27;96976;-74
2023/11/22 05:12:01;;;;;;;13.80;6.60;;;;;;;5.36;52.05;102535.25;5088367;27;97595;-75
2023/11/22 05:14:28;;;;;;;10.57;5.47;;;;;;;5.32;52.12;102533.44;5084206;27;99527;-75
2023/11/22 05:16:56;;;;;;;12.13;6.82;;;;;;;5.45;51.76;102540.59;5090598;27;97626;-75
2023/11/22 05:19:23;;;;;;;10.75;6.53;;;;;;;5.40;52.04;102548.41;5090706;27;97179;-75
2023/11/22 05:21:49;;;;;;;10.23;5.70;;;;;;;5.39;52.03;102545.75;5091881;27;96913;-74
2023/11/22 05:24:16;;;;;;;12.18;6.68;;;;;;;5.18;51.81;102541.13;5082911;27;98131;-75
2023/11/22 05:26:42;;;;;;;11.38;5.88;;;;;;;5.15;52.53;102539.31;5092096;27;98770;-75
2023/11/22 05:29:09;;;;;;;15.82;6.22;;;;;;;5.13;51.98;102540.16;5087902;27;96797;-75
2023/11/22 05:31:37;;;;;;;13.70;6.10;;;;;;;5.33;51.69;102541.31;5081416;27;96853;-75
2023/11/22 05:34:05;;;;;;;12.75;6.38;;;;;;;5.37;52.03;102552.75;5080431;27;99594;-74
2023/11/22 05:36:31;;;;;;;10.55;5.85;;;;;;;5.11;51.37;102561.09;5088125;27;98787;-75
2023/11/22 05:38:58;;;;;;;11.93;5.60;;;;;;;5.22;51.63;102575.25;5082879;27;96962;-75
2023/11/22 05:41:25;;;;;;;11.23;6.43;;;;;;;5.09;50.82;102573.28;5079224;27;96958;-72
2023/11/22 05:43:52;;;;;;;11.30;5.55;;;;;;;5.17;50.26;102584.78;5081171;27;98655;-74
2023/11/22 05:46:21;;;;;;;15.48;6.70;;;;;;;5.28;50.85;102587.56;5092298;27;100826;-74
2023/11/22 05:48:48;;;;;;;14.20;6.25;;;;;;;5.01;50.66;102579.25;5090436;27;96829;-74
2023/11/22 05:51:16;;;;;;;10.45;5.72;;;;;;;5.11;50.83;102583.81;5084527;27;97818;-74
2023/11/22 05:53:42;;;;;;;10.40;5.45;;;;;;;5.28;50.36;102574.44;5081238;27;98916;-74
2023/11/22 05:56:09;;;;;;;12.98;6.68;;;;;;;5.29;49.79;102570.97;5087370;27;99317;-74
2023/11/22 05:58:38;;;;;;;11.73;5.97;;;;;;;5.13;50.43;102567.22;5088287;27;96694;-75
2023/11/22 06:01:05;;;;;;;11.55;6.05;;;;;;;4.98;50.15;102564.38;5093600;27;96796;-74
2023/11/22 06:03:32;;;;;;;12.40;6.90;;;;;;;5.05;49.92;102565.38;5092113;27;101610;-74
2023/11/22 06:05:58;;;;;;;13.90;6.65;;;;;;;5.01;50.93;102567.03;5092596;27;97705;-73
2023/11/22 06:08:30;;;;;;;12.55;6.00;;;;;;;4.94;50.43;102567.78;5086244;27;98452;-73
2023/11/22 06:10:57;;;;;;;11.68;5.82;;;;;;;5.16;50.61;102572.53;5082439;27;96803;-73
2023/11/22 06:13:24;;;;;;;10.05;5.53;;;;;;;5.27;50.23;102569.19;5088877;27;99357;-74
2023/11/22 06:15:53;;;;;;;13.45;6.88;;;;;;;5.10;50.02;102577.69;5087525;27;98935;-74
2023/11/22 06:18:19;;;;;;;14.10;6.75;;;;;;;5.15;50.08;102583.88;5090750;27;97476;-74
2023/11/22 06:20:47;;;;;;;14.52;6.40;;;;;;;5.26;50.13;102585.75;5085922;27;97919;-74
2023/11/22 06:23:13;;;;;;;13.75;7.22;;;;;;;5.16;50.32;102575.16;5083994;27;99546;-74
2023/11/22 06:25:48;;;;;;;14.10;6.47;;;;;;;5.03;50.77;102585.41;5090024;27;98896;-74
2023/11/22 06:28:15;;;;;;;13.48;6.32;;;;;;;5.11;50.96;102589.94;5087411;27;96836;-74
2023/11/22 06:30:42;;;;;;;13.27;6.75;;;;;;;5.13;50.22;102590.81;5088405;27;97089;-72
2023/11/22 06:33:08;;;;;;;14.15;6.88;;;;;;;5.19;50.30;102588.28;5084707;27;99355;-73
2023/11/22 06:35:36;;;;;;;12.48;6.88;;;;;;;5.32;50.10;102601.59;5085806;27;99417;-73
2023/11/22 06:38:03;;;;;;;12.90;6.07;;;;;;;5.33;50.35;102598.09;5086317;27;97609;-74
2023/11/22 06:40:30;;;;;;;11.95;5.88;;;;;;;5.31;49.95;102607.72;5086129;27;97210;-72
2023/11/22 06:42:57;;;;;;;11.75;6.75;;;;;;;5.34;49.87;102616.50;5085245;27;99049;-73
2023/11/22 06:45:24;;;;;;;12.02;6.15;;;;;;;5.22;49.87;102622.44;5090103;27;99293;-75
2023/11/22 06:47:50;;;;;;;11.60;6.30;;;;;;;5.31;50.19;102628.69;5087446;27;96677;-75
2023/11/22 06:50:17;;;;;;;13.43;6.93;;;;;;;5.18;49.79;102638.97;5081895;27;96979;-75
2023/11/22 06:52:43;;;;;;;14.25;6.97;;;;;;;5.19;50.00;102652.94;5087047;27;98943;-75
2023/11/22 06:55:11;;;;;;;14.98;6.75;;;;;;;5.09;50.17;102657.16;5088162;27;98731;-75
2023/11/22 06:57:37;;;;;;;12.88;6.60;;;;;;;5.26;50.10;102669.63;5090705;27;96895;-74
2023/11/22 07:00:09;;;;;;;13.52;7.18;;;;;;;5.10;51.14;102672.03;5084256;27;97627;-73
2023/11/22 07:02:36;;;;;;;12.63;6.90;;;;;;;5.11;50.51;102665.03;5078805;27;99250;-72
2023/11/22 07:05:02;;;;;;;11.82;6.68;;;;;;;5.06;51.56;102670.19;5090864;27;97429;-74
2023/11/22 07:07:29;;;;;;;16.95;6.63;;;;;;;5.15;51.05;102680.84;5090169;27;96887;-73
2023/11/22 07:09:58;;;;;;;13.40;7.30;;;;;;;5.26;51.50;102685.38;5086772;27;96795;-72
2023/11/22 07:12:25;;;;;;;18.48;7.28;;;;;;;5.20;51.51;102681.78;5092021;27;99118;-73
2023/11/22 07:14:55;;;;;;;13.88;7.45;;;;;;;5.32;51.37;102681.09;5088429;27;98873;-74
2023/11/22 07:17:23;;;;;;;13.40;7.18;;;;;;;5.29;51.24;102685.44;5090547;27;97503;-74
2023/11/22 07:19:51;;;;;;;12.55;7.20;;;;;;;5.36;51.44;102682.06;5081183;27;97699;-74
2023/11/22 07:22:19;;;;;;;13.15;6.20;;;;;;;5.33;50.78;102693.38;5083846;27;99030;-73
2023/11/22 07:24:47;;;;;;;17.48;7.10;;;;;;;5.30;51.67;102687.19;5080115;27;100341;-72
2023/11/22 07:27:14;;;;;;;17.92;7.30;;;;;;;5.47;52.06;102688.34;5086239;27;96731;-73
2023/11/22 07:29:41;;;;;;;14.23;7.32;;;;;;;5.45;52.06;102683.06;5083460;27;99775;-74
2023/11/22 07:32:08;;;;;;;15.48;7.93;;;;;;;5.36;52.09;102688.19;5085008;27;99183;-73
2023/11/22 07:34:37;;;;;;;13.77;7.07;;;;;;;5.59;50.95;102688.53;5080159;27;98929;-74
2023/11/22 07:37:04;;;;;;;21.20;7.38;;;;;;;5.67;51.93;102688.66;5082175;27;97100;-73
2023/11/22 07:39:31;;;;;;;14.05;7.20;;;;;;;5.63;51.94;102705.22;5085509;27;97508;-73
2023/11/22 07:41:57;;;;;;;13.90;6.85;;;;;;;5.80;51.40;102707.25;5081110;27;97852;-72
2023/11/22 07:44:24;;;;;;;16.35;7.70;;;;;;;5.82;51.77;102702.91;5078757;27;101888;-73
2023/11/22 07:46:52;;;;;;;15.52;7.80;;;;;;;5.87;51.94;102690.75;5086972;27;97367;-75
2023/11/22 07:49:21;;;;;;;13.38;7.15;;;;;;;6.18;51.59;102696.44;5079259;27;98828;-75
2023/11/22 07:51:51;;;;;;;16.15;8.20;;;;;;;6.10;50.77;102684.97;5073569;27;99595;-74
2023/11/22 07:54:18;;;;;;;14.25;7.78;;;;;;;5.91;51.38;102676.81;5081603;27;99155;-74
2023/11/22 07:56:44;;;;;;;18.23;7.45;;;;;;;5.99;51.65;102672.56;5084686;27;97760;-76
2023/11/22 07:59:11;;;;;;;19.60;8.45;;;;;;;6.15;51.27;102675.41;5085512;27;97100;-77
2023/11/22 08:01:39;;;;;;;16.85;7.90;;;;;;;6.29;51.38;102665.97;5077093;27;99247;-79
2023/11/22 08:04:06;;;;;;;19.20;8.43;;;;;;;6.32;51.25;102645.00;5082448;27;99284;-78
2023/11/22 08:06:34;;;;;;;15.98;8.35;;;;;;;6.33;51.43;102654.63;5090816;27;97350;-80
2023/11/22 08:09:04;;;;;;;17.85;8.57;;;;;;;6.42;51.01;102652.13;5074932;27;99150;-75
2023/11/22 08:11:31;;;;;;;17.52;7.78;;;;;;;6.29;51.09;102647.59;5075041;27;99330;-76
2023/11/22 08:13:58;;;;;;;14.55;8.20;;;;;;;6.23;51.63;102645.78;5079402;27;99409;-75
2023/11/22 08:16:26;;;;;;;15.15;7.82;;;;;;;6.68;50.42;102649.78;5084303;27;100377;-76
2023/11/22 08:18:53;;;;;;;15.63;8.15;;;;;;;6.87;49.48;102661.38;5081164;27;97295;-77
2023/11/22 08:21:19;;;;;;;15.32;7.32;;;;;;;6.82;49.59;102663.06;5076389;27;99084;-76
2023/11/22 08:23:46;;;;;;;13.93;7.25;;;;;;;6.93;48.53;102662.31;5085264;27;99210;-73
2023/11/22 08:26:14;;;;;;;15.52;7.35;;;;;;;6.96;47.60;102661.44;5080424;27;98742;-74
2023/11/22 08:28:41;;;;;;;14.77;7.88;;;;;;;6.91;46.72;102668.41;5080015;27;96824;-74
2023/11/22 08:31:09;;;;;;;13.35;7.10;;;;;;;6.70;45.75;102669.06;5081242;27;98982;-75
2023/11/22 08:33:35;;;;;;;14.02;7.38;;;;;;;6.82;45.86;102668.34;5076220;27;100047;-73
2023/11/22 08:36:04;;;;;;;15.43;7.47;;;;;;;6.95;45.50;102680.72;5085905;27;96797;-74
2023/11/22 08:38:31;;;;;;;15.63;7.20;;;;;;;6.80;44.28;102676.19;5081845;27;98901;-73
2023/11/22 08:40:59;;;;;;;17.33;8.45;;;;;;;6.78;44.37;102670.91;5081612;27;98861;-74
2023/11/22 08:43:28;;;;;;;11.20;6.45;;;;;;;6.84;43.47;102666.59;5080451;27;100982;-73
2023/11/22 08:45:55;;;;;;;14.60;6.88;;;;;;;6.82;43.66;102660.44;5083094;27;98721;-73
2023/11/22 08:48:21;;;;;;;13.93;6.78;;;;;;;6.94;43.67;102671.09;5085335;27;98897;-73
2023/11/22 08:50:48;;;;;;;14.63;6.88;;;;;;;6.59;43.73;102681.19;5081261;27;98980;-72
2023/11/22 08:53:15;;;;;;;21.55;8.73;;;;;;;6.95;43.99;102684.25;5087682;27;99563;-73
2023/11/22 08:55:43;;;;;;;15.57;6.70;;;;;;;7.35;42.75;102692.50;5077945;27;96884;-72
2023/11/22 08:58:10;;;;;;;14.90;6.93;;;;;;;7.15;41.31;102694.97;5082090;27;96913;-74
2023/11/22 09:00:38;;;;;;;11.20;6.22;;;;;;;7.31;41.70;102688.06;5083468;27;98851;-74
2023/11/22 09:03:05;;;;;;;14.20;7.03;;;;;;;6.95;42.02;102686.00;5076746;27;98815;-74
2023/11/22 09:05:31;;;;;;;10.73;6.80;;;;;;;7.26;42.24;102700.31;5078131;27;99653;-73
2023/11/22 09:08:00;;;;;;;12.43;6.95;;;;;;;7.39;42.05;102707.44;5081818;27;99194;-73
2023/11/22 09:10:27;;;;;;;15.98;7.55;;;;;;;7.43;41.94;102707.47;5083910;27;101248;-73
2023/11/22 09:12:54;;;;;;;13.48;7.45;;;;;;;7.47;41.58;102701.38;5080237;27;99367;-72
2023/11/22 09:15:26;;;;;;;12.07;6.95;;;;;;;7.49;41.47;102683.84;5086554;27;96766;-73
2023/11/22 09:17:54;;;;;;;17.70;7.88;;;;;;;7.70;41.48;102676.97;5083867;27;97676;-73
2023/11/22 09:20:21;;;;;;;15.18;6.78;;;;;;;7.75;40.89;102678.75;5079407;27;99429;-73
2023/11/22 09:22:49;;;;;;;15.73;7.65;;;;;;;7.56;41.43;102676.88;5077933;27;101456;-73
2023/11/22 09:25:18;;;;;;;13.88;7.20;;;;;;;7.46;41.69;102672.41;5075012;27;100007;-73
2023/11/22 09:27:47;;;;;;;13.35;7.80;;;;;;;7.68;42.04;102665.56;5077630;27;97440;-72
2023/11/22 09:30:19;;;;;;;14.30;8.05;;;;;;;7.68;41.92;102660.31;5075178;27;99140;-72
2023/11/22 09:32:46;;;;;;;14.68;7.65;;;;;;;7.48;42.25;102653.13;5078086;27;98722;-72
2023/11/22 09:35:16;;;;;;;13.60;7.88;;;;;;;8.02;41.52;102654.34;5078006;27;98789;-73
2023/11/22 09:37:44;;;;;;;37.00;9.07;;;;;;;7.89;41.32;102657.78;5079966;27;97309;-73
2023/11/22 09:40:12;;;;;;;16.23;7.68;;;;;;;8.07;40.96;102654.41;5079032;27;98855;-73
2023/11/22 09:42:39;;;;;;;13.63;7.47;;;;;;;7.98;41.11;102644.69;5080251;27;99591;-73
2023/11/22 09:45:07;;;;;;;13.10;6.95;;;;;;;8.31;40.47;102639.63;5080744;27;97537;-73
2023/11/22 09:47:34;;;;;;;19.55;8.77;;;;;;;8.31;39.78;102625.56;5072257;27;96903;-74
2023/11/22 09:50:05;;;;;;;17.67;6.75;;;;;;;7.98;39.92;102628.91;5076803;27;100300;-73
2023/11/22 09:52:35;;;;;;;17.42;7.28;;;;;;;8.16;39.14;102631.63;5079122;27;102645;-75
2023/11/22 09:55:02;;;;;;;13.60;7.10;;;;;;;8.22;38.89;102639.53;5078357;27;97022;-73
2023/11/22 09:57:31;;;;;;;15.70;6.60;;;;;;;8.15;38.63;102643.00;5077886;27;99268;-73
2023/11/22 09:59:59;;;;;;;23.52;7.20;;;;;;;8.12;37.84;102658.81;5077515;27;98179;-73
2023/11/22 10:02:28;;;;;;;34.78;7.57;;;;;;;7.97;38.23;102659.59;5083324;27;98841;-73
2023/11/22 10:04:55;;;;;;;28.80;7.68;;;;;;;7.78;38.19;102665.63;5079722;27;99511;-73
2023/11/22 10:07:22;;;;;;;13.40;6.25;;;;;;;8.24;38.20;102677.31;5079920;27;96908;-74
2023/11/22 10:09:51;;;;;;;18.65;6.65;;;;;;;7.92;37.59;102684.16;5075613;27;102414;-74
2023/11/22 10:12:21;;;;;;;16.58;5.97;;;;;;;7.82;37.45;102680.56;5078804;27;98064;-72
2023/11/22 10:14:47;;;;;;;55.88;9.63;;;;;;;8.15;37.08;102676.38;5080142;27;98311;-72
2023/11/22 10:17:16;;;;;;;11.68;6.20;;;;;;;8.66;36.90;102673.97;5075052;27;96922;-73
2023/11/22 10:19:42;;;;;;;11.75;6.53;;;;;;;8.72;36.49;102673.13;5080817;27;97973;-73
2023/11/22 10:22:09;;;;;;;168.65;12.63;;;;;;;8.51;36.17;102673.06;5075032;27;99013;-73
2023/11/22 10:24:37;;;;;;;83.80;9.05;;;;;;;8.73;36.39;102674.88;5077453;27;96881;-73
2023/11/22 10:27:05;;;;;;;15.75;7.68;;;;;;;8.25;36.65;102675.56;5078314;27;97557;-73
2023/11/22 10:29:33;;;;;;;16.02;7.43;;;;;;;7.86;37.09;102686.75;5080214;27;100776;-73
2023/11/22 10:32:00;;;;;;;11.25;6.65;;;;;;;8.29;37.63;102685.22;5075169;27;98240;-73
2023/11/22 10:34:27;;;;;;;18.80;6.78;;;;;;;8.36;37.09;102687.03;5080615;27;96916;-73
2023/11/22 10:36:56;;;;;;;12.13;7.10;;;;;;;8.32;37.04;102688.78;5076728;27;96891;-72
2023/11/22 10:39:25;;;;;;;13.15;7.15;;;;;;;8.62;36.64;102677.47;5077239;27;98750;-73
2023/11/22 10:41:52;;;;;;;13.98;6.45;;;;;;;8.87;36.26;102674.91;5085910;27;99317;-72
2023/11/22 10:44:22;;;;;;;16.52;7.55;;;;;;;8.60;36.76;102675.75;5083642;27;97444;-71
2023/11/22 10:46:50;;;;;;;29.33;7.30;;;;;;;8.59;36.25;102671.34;5085320;27;100074;-72
2023/11/22 10:49:17;;;;;;;25.52;6.93;;;;;;;8.65;36.54;102674.88;5088017;27;99690;-73
2023/11/22 10:51:50;;;;;;;14.23;6.70;;;;;;;8.55;36.74;102682.72;5084876;27;99426;-73
2023/11/22 10:54:17;;;;;;;12.10;6.85;;;;;;;7.99;37.14;102689.47;5082745;27;100261;-74
2023/11/22 10:56:47;;;;;;;64.68;9.45;;;;;;;8.01;37.75;102698.22;5078486;27;100012;-74
2023/11/22 10:59:14;;;;;;;57.67;7.75;;;;;;;8.20;36.70;102701.00;5082637;27;100508;-73
2023/11/22 11:01:49;;;;;;;13.63;6.43;;;;;;;8.11;36.15;102693.03;5080636;27;98768;-75
2023/11/22 11:04:20;;;;;;;18.48;5.85;;;;;;;8.44;35.88;102687.97;5080279;27;99067;-74
2023/11/22 11:06:52;;;;;;;20.13;6.00;;;;;;;8.17;35.71;102693.94;5082379;27;98337;-73
2023/11/22 11:09:21;;;;;;;22.35;7.22;;;;;;;8.29;35.30;102687.84;5079958;27;99199;-74
2023/11/22 11:11:48;;;;;;;13.63;5.80;;;;;;;8.54;35.45;102679.19;5085153;27;98739;-74
2023/11/22 11:14:17;;;;;;;24.80;6.43;;;;;;;8.58;35.14;102680.09;5083457;27;96711;-74
2023/11/22 11:16:49;;;;;;;15.43;6.05;;;;;;;8.60;35.05;102667.84;5086948;27;97219;-74
2023/11/22 11:19:17;;;;;;;26.40;6.43;;;;;;;8.63;34.81;102658.16;5078965;27;99632;-73
2023/11/22 11:21:44;;;;;;;25.17;8.10;;;;;;;8.40;35.27;102670.41;5086688;27;98921;-73
2023/11/22 11:24:11;;;;;;;28.63;6.60;;;;;;;8.06;36.02;102664.06;5078609;27;96921;-74